KTWF/TWF METAR and TAF weather

Enter ICAO airport designator
Station Type Date Time Source
KTWF METAR 2019/05/23 18:53 UTC NOAA

KTWF 231853Z 09017G21KT 10SM SCT055 OVC075 11/04 A2980 RMK AO2 RAB02E21 SLP070 P0000 T01060039


Station Type Date Time Source
KTWF Decoded METAR 2019/05/23 18:53 UTC NOAA

JOSLIN FLD-MAGIC VALLEY REGL, ID, United States (KTWF) 42-29N 114-29W 1266M
May 23, 2019 - 02:53 PM EDT / 2019.05.23 1853 UTC
Wind: from the E (090 degrees) at 20 MPH (17 KT) gusting to 24 MPH (21 KT):0
Visibility: 10 mile(s):0
Sky conditions: overcast
Precipitation last hour: A trace
Temperature: 51.1 F (10.6 C)
Dew Point: 39.0 F (3.9 C)
Relative Humidity: 63%
Pressure (altimeter): 29.8 in. Hg (1009 hPa)
ob: KTWF 231853Z 09017G21KT 10SM SCT055 OVC075 11/04 A2980 RMK AO2 RAB02E21 SLP070 P0000 T01060039
cycle: 19

Station Type Date Time Source
KTWF TAF 2019/05/23 18:30 UTC NOAA

TAF KTWF 231726Z 2318/2418 05010KT P6SM VCSH BKN050
FM232100 21010KT P6SM -SHRA OVC050
FM240100 VRB06KT P6SM -SHRA OVC050
FM240500 19008KT P6SM OVC100

Example: see airport list